sensor_id;sensor_type;location;lat;lon;timestamp;P1;durP1;ratioP1;P2;durP2;ratioP2
12059;SDS011;6091;51.432;6.880;2023-05-10T00:02:20;0.40;;;0.40;;
12059;SDS011;6091;51.432;6.880;2023-05-10T00:04:48;0.30;;;0.30;;
12059;SDS011;6091;51.432;6.880;2023-05-10T00:07:16;0.50;;;0.50;;
12059;SDS011;6091;51.432;6.880;2023-05-10T00:09:44;0.50;;;0.30;;
12059;SDS011;6091;51.432;6.880;2023-05-10T00:12:12;0.40;;;0.40;;
12059;SDS011;6091;51.432;6.880;2023-05-10T00:14:40;0.45;;;0.30;;
12059;SDS011;6091;51.432;6.880;2023-05-10T00:17:10;0.73;;;0.40;;
12059;SDS011;6091;51.432;6.880;2023-05-10T00:19:38;0.32;;;0.32;;
12059;SDS011;6091;51.432;6.880;2023-05-10T00:22:06;0.32;;;0.32;;
12059;SDS011;6091;51.432;6.880;2023-05-10T00:24:34;0.40;;;0.40;;
12059;SDS011;6091;51.432;6.880;2023-05-10T00:27:01;0.30;;;0.30;;
12059;SDS011;6091;51.432;6.880;2023-05-10T00:29:30;0.35;;;0.35;;
12059;SDS011;6091;51.432;6.880;2023-05-10T00:31:59;0.40;;;0.40;;
12059;SDS011;6091;51.432;6.880;2023-05-10T00:34:29;0.40;;;0.40;;
12059;SDS011;6091;51.432;6.880;2023-05-10T00:36:57;0.40;;;0.40;;
12059;SDS011;6091;51.432;6.880;2023-05-10T00:39:25;0.40;;;0.40;;
12059;SDS011;6091;51.432;6.880;2023-05-10T00:41:55;0.40;;;0.40;;
12059;SDS011;6091;51.432;6.880;2023-05-10T00:44:27;0.40;;;0.40;;
12059;SDS011;6091;51.432;6.880;2023-05-10T00:46:55;0.40;;;0.40;;
12059;SDS011;6091;51.432;6.880;2023-05-10T00:49:24;0.57;;;0.57;;
12059;SDS011;6091;51.432;6.880;2023-05-10T00:51:55;0.47;;;0.47;;
12059;SDS011;6091;51.432;6.880;2023-05-10T00:54:23;0.40;;;0.40;;
12059;SDS011;6091;51.432;6.880;2023-05-10T00:56:50;0.45;;;0.45;;
12059;SDS011;6091;51.432;6.880;2023-05-10T00:59:18;0.47;;;0.47;;
12059;SDS011;6091;51.432;6.880;2023-05-10T01:01:47;0.40;;;0.40;;
12059;SDS011;6091;51.432;6.880;2023-05-10T01:04:15;0.50;;;0.50;;
12059;SDS011;6091;51.432;6.880;2023-05-10T01:06:43;0.45;;;0.45;;
12059;SDS011;6091;51.432;6.880;2023-05-10T01:09:13;0.43;;;0.43;;
12059;SDS011;6091;51.432;6.880;2023-05-10T01:11:40;0.40;;;0.40;;
12059;SDS011;6091;51.432;6.880;2023-05-10T01:14:08;0.50;;;0.50;;
12059;SDS011;6091;51.432;6.880;2023-05-10T01:16:38;0.35;;;0.35;;
12059;SDS011;6091;51.432;6.880;2023-05-10T01:19:30;0.30;;;0.30;;
12059;SDS011;6091;51.432;6.880;2023-05-10T01:30:50;0.40;;;0.40;;
12059;SDS011;6091;51.432;6.880;2023-05-10T01:34:09;0.60;;;0.60;;
12059;SDS011;6091;51.432;6.880;2023-05-10T01:36:48;0.50;;;0.50;;
12059;SDS011;6091;51.432;6.880;2023-05-10T01:42:20;0.40;;;0.40;;
12059;SDS011;6091;51.432;6.880;2023-05-10T01:47:41;0.55;;;0.40;;
12059;SDS011;6091;51.432;6.880;2023-05-10T01:50:24;0.63;;;0.45;;
12059;SDS011;6091;51.432;6.880;2023-05-10T01:52:57;0.40;;;0.40;;
12059;SDS011;6091;51.432;6.880;2023-05-10T01:55:28;0.32;;;0.32;;
12059;SDS011;6091;51.432;6.880;2023-05-10T01:58:07;0.40;;;0.40;;
12059;SDS011;6091;51.432;6.880;2023-05-10T02:00:44;0.50;;;0.50;;
12059;SDS011;6091;51.432;6.880;2023-05-10T02:03:13;0.40;;;0.40;;
12059;SDS011;6091;51.432;6.880;2023-05-10T02:05:48;0.50;;;0.50;;
12059;SDS011;6091;51.432;6.880;2023-05-10T02:08:18;0.40;;;0.40;;
12059;SDS011;6091;51.432;6.880;2023-05-10T02:10:49;0.47;;;0.47;;
12059;SDS011;6091;51.432;6.880;2023-05-10T02:13:19;0.38;;;0.38;;
12059;SDS011;6091;51.432;6.880;2023-05-10T02:15:51;0.40;;;0.40;;
12059;SDS011;6091;51.432;6.880;2023-05-10T02:18:22;0.40;;;0.40;;
12059;SDS011;6091;51.432;6.880;2023-05-10T02:20:51;0.50;;;0.40;;
12059;SDS011;6091;51.432;6.880;2023-05-10T02:23:21;0.52;;;0.40;;
12059;SDS011;6091;51.432;6.880;2023-05-10T02:25:51;0.38;;;0.38;;
12059;SDS011;6091;51.432;6.880;2023-05-10T02:28:23;0.50;;;0.50;;
12059;SDS011;6091;51.432;6.880;2023-05-10T02:30:52;0.50;;;0.50;;
12059;SDS011;6091;51.432;6.880;2023-05-10T02:33:20;0.40;;;0.40;;
12059;SDS011;6091;51.432;6.880;2023-05-10T02:35:54;0.50;;;0.50;;
12059;SDS011;6091;51.432;6.880;2023-05-10T02:38:22;0.40;;;0.40;;
12059;SDS011;6091;51.432;6.880;2023-05-10T02:40:55;0.50;;;0.50;;
12059;SDS011;6091;51.432;6.880;2023-05-10T02:43:24;0.40;;;0.40;;
12059;SDS011;6091;51.432;6.880;2023-05-10T02:45:54;0.40;;;0.40;;
12059;SDS011;6091;51.432;6.880;2023-05-10T02:48:24;0.40;;;0.40;;
12059;SDS011;6091;51.432;6.880;2023-05-10T02:50:52;0.50;;;0.50;;
12059;SDS011;6091;51.432;6.880;2023-05-10T02:53:35;0.45;;;0.45;;
12059;SDS011;6091;51.432;6.880;2023-05-10T02:56:28;0.50;;;0.50;;
12059;SDS011;6091;51.432;6.880;2023-05-10T02:59:00;0.40;;;0.40;;
12059;SDS011;6091;51.432;6.880;2023-05-10T03:01:29;0.47;;;0.47;;
12059;SDS011;6091;51.432;6.880;2023-05-10T03:03:56;0.38;;;0.38;;
12059;SDS011;6091;51.432;6.880;2023-05-10T03:06:23;0.30;;;0.30;;
12059;SDS011;6091;51.432;6.880;2023-05-10T03:08:51;0.50;;;0.50;;
12059;SDS011;6091;51.432;6.880;2023-05-10T03:11:25;0.40;;;0.40;;
12059;SDS011;6091;51.432;6.880;2023-05-10T03:17:30;0.45;;;0.40;;
12059;SDS011;6091;51.432;6.880;2023-05-10T03:20:24;0.60;;;0.60;;
12059;SDS011;6091;51.432;6.880;2023-05-10T03:23:42;0.50;;;0.50;;
12059;SDS011;6091;51.432;6.880;2023-05-10T03:26:02;0.57;;;0.50;;
12059;SDS011;6091;51.432;6.880;2023-05-10T03:28:35;0.65;;;0.45;;
12059;SDS011;6091;51.432;6.880;2023-05-10T03:31:04;0.40;;;0.40;;
12059;SDS011;6091;51.432;6.880;2023-05-10T03:33:33;0.50;;;0.50;;
12059;SDS011;6091;51.432;6.880;2023-05-10T03:36:12;0.60;;;0.60;;
12059;SDS011;6091;51.432;6.880;2023-05-10T03:38:40;0.50;;;0.50;;
12059;SDS011;6091;51.432;6.880;2023-05-10T03:41:07;0.50;;;0.50;;
12059;SDS011;6091;51.432;6.880;2023-05-10T03:43:34;0.50;;;0.50;;
12059;SDS011;6091;51.432;6.880;2023-05-10T03:46:05;0.40;;;0.40;;
12059;SDS011;6091;51.432;6.880;2023-05-10T03:48:33;0.50;;;0.50;;
12059;SDS011;6091;51.432;6.880;2023-05-10T03:51:01;0.40;;;0.40;;
12059;SDS011;6091;51.432;6.880;2023-05-10T03:53:31;0.45;;;0.45;;
12059;SDS011;6091;51.432;6.880;2023-05-10T03:55:59;0.50;;;0.50;;
12059;SDS011;6091;51.432;6.880;2023-05-10T03:58:28;0.40;;;0.40;;
12059;SDS011;6091;51.432;6.880;2023-05-10T04:00:58;0.55;;;0.55;;
12059;SDS011;6091;51.432;6.880;2023-05-10T04:03:25;0.47;;;0.47;;
12059;SDS011;6091;51.432;6.880;2023-05-10T04:06:00;0.50;;;0.50;;
12059;SDS011;6091;51.432;6.880;2023-05-10T04:08:30;0.50;;;0.50;;
12059;SDS011;6091;51.432;6.880;2023-05-10T04:11:04;0.50;;;0.50;;
12059;SDS011;6091;51.432;6.880;2023-05-10T04:13:37;0.40;;;0.40;;
12059;SDS011;6091;51.432;6.880;2023-05-10T04:16:12;0.60;;;0.60;;
12059;SDS011;6091;51.432;6.880;2023-05-10T04:18:40;0.40;;;0.40;;
12059;SDS011;6091;51.432;6.880;2023-05-10T04:21:11;0.40;;;0.40;;
12059;SDS011;6091;51.432;6.880;2023-05-10T04:23:42;0.52;;;0.52;;
12059;SDS011;6091;51.432;6.880;2023-05-10T04:26:12;0.50;;;0.50;;
12059;SDS011;6091;51.432;6.880;2023-05-10T04:28:40;0.50;;;0.45;;
12059;SDS011;6091;51.432;6.880;2023-05-10T04:31:09;0.50;;;0.50;;
12059;SDS011;6091;51.432;6.880;2023-05-10T04:33:38;0.50;;;0.50;;
12059;SDS011;6091;51.432;6.880;2023-05-10T04:36:08;0.50;;;0.50;;
12059;SDS011;6091;51.432;6.880;2023-05-10T04:38:37;0.50;;;0.50;;
12059;SDS011;6091;51.432;6.880;2023-05-10T04:41:08;0.65;;;0.65;;
12059;SDS011;6091;51.432;6.880;2023-05-10T04:43:40;0.30;;;0.30;;
12059;SDS011;6091;51.432;6.880;2023-05-10T04:46:08;0.50;;;0.50;;
12059;SDS011;6091;51.432;6.880;2023-05-10T04:48:38;0.45;;;0.45;;
12059;SDS011;6091;51.432;6.880;2023-05-10T04:51:06;0.50;;;0.50;;
12059;SDS011;6091;51.432;6.880;2023-05-10T04:53:34;0.60;;;0.60;;
12059;SDS011;6091;51.432;6.880;2023-05-10T04:56:02;0.50;;;0.50;;
12059;SDS011;6091;51.432;6.880;2023-05-10T04:58:34;1.25;;;0.68;;
12059;SDS011;6091;51.432;6.880;2023-05-10T05:01:08;0.68;;;0.68;;
12059;SDS011;6091;51.432;6.880;2023-05-10T05:03:37;0.70;;;0.70;;
12059;SDS011;6091;51.432;6.880;2023-05-10T05:06:05;0.60;;;0.60;;
12059;SDS011;6091;51.432;6.880;2023-05-10T05:08:33;0.50;;;0.50;;
12059;SDS011;6091;51.432;6.880;2023-05-10T05:11:01;0.50;;;0.50;;
12059;SDS011;6091;51.432;6.880;2023-05-10T05:13:31;0.60;;;0.60;;
12059;SDS011;6091;51.432;6.880;2023-05-10T05:16:02;0.50;;;0.50;;
12059;SDS011;6091;51.432;6.880;2023-05-10T05:18:29;0.60;;;0.60;;
12059;SDS011;6091;51.432;6.880;2023-05-10T05:21:00;0.77;;;0.77;;
12059;SDS011;6091;51.432;6.880;2023-05-10T05:23:28;0.60;;;0.60;;
12059;SDS011;6091;51.432;6.880;2023-05-10T05:25:56;0.70;;;0.60;;
12059;SDS011;6091;51.432;6.880;2023-05-10T05:28:24;0.70;;;0.70;;
12059;SDS011;6091;51.432;6.880;2023-05-10T05:30:51;0.75;;;0.70;;
12059;SDS011;6091;51.432;6.880;2023-05-10T05:33:22;0.60;;;0.60;;
12059;SDS011;6091;51.432;6.880;2023-05-10T05:35:52;0.70;;;0.70;;
12059;SDS011;6091;51.432;6.880;2023-05-10T05:38:22;0.70;;;0.70;;
12059;SDS011;6091;51.432;6.880;2023-05-10T05:40:53;0.70;;;0.70;;
12059;SDS011;6091;51.432;6.880;2023-05-10T05:43:20;0.90;;;0.90;;
12059;SDS011;6091;51.432;6.880;2023-05-10T05:45:48;0.80;;;0.80;;
12059;SDS011;6091;51.432;6.880;2023-05-10T05:48:16;0.60;;;0.60;;
12059;SDS011;6091;51.432;6.880;2023-05-10T05:50:44;0.77;;;0.77;;
12059;SDS011;6091;51.432;6.880;2023-05-10T05:53:12;0.65;;;0.65;;
12059;SDS011;6091;51.432;6.880;2023-05-10T05:55:45;0.70;;;0.70;;
12059;SDS011;6091;51.432;6.880;2023-05-10T05:58:22;0.90;;;0.90;;
12059;SDS011;6091;51.432;6.880;2023-05-10T06:00:50;1.25;;;0.88;;
12059;SDS011;6091;51.432;6.880;2023-05-10T06:03:20;2.33;;;0.82;;
12059;SDS011;6091;51.432;6.880;2023-05-10T06:05:48;1.10;;;1.00;;
12059;SDS011;6091;51.432;6.880;2023-05-10T06:08:15;1.55;;;0.95;;
12059;SDS011;6091;51.432;6.880;2023-05-10T06:10:43;3.22;;;1.15;;
12059;SDS011;6091;51.432;6.880;2023-05-10T06:13:11;3.85;;;1.23;;
12059;SDS011;6091;51.432;6.880;2023-05-10T06:15:42;1.30;;;1.20;;
12059;SDS011;6091;51.432;6.880;2023-05-10T06:18:10;1.42;;;1.33;;
12059;SDS011;6091;51.432;6.880;2023-05-10T06:20:38;1.42;;;1.33;;
12059;SDS011;6091;51.432;6.880;2023-05-10T06:23:08;2.42;;;1.20;;
12059;SDS011;6091;51.432;6.880;2023-05-10T06:25:35;1.85;;;1.58;;
12059;SDS011;6091;51.432;6.880;2023-05-10T06:28:09;1.65;;;1.40;;
12059;SDS011;6091;51.432;6.880;2023-05-10T06:30:36;1.70;;;1.60;;
12059;SDS011;6091;51.432;6.880;2023-05-10T06:33:04;2.03;;;1.55;;
12059;SDS011;6091;51.432;6.880;2023-05-10T06:35:32;1.52;;;1.38;;
12059;SDS011;6091;51.432;6.880;2023-05-10T06:38:00;2.08;;;1.80;;
12059;SDS011;6091;51.432;6.880;2023-05-10T06:40:28;1.90;;;1.65;;
12059;SDS011;6091;51.432;6.880;2023-05-10T06:42:56;1.83;;;1.63;;
12059;SDS011;6091;51.432;6.880;2023-05-10T06:45:23;2.72;;;1.80;;
12059;SDS011;6091;51.432;6.880;2023-05-10T06:47:50;3.78;;;1.98;;
12059;SDS011;6091;51.432;6.880;2023-05-10T06:50:20;2.30;;;2.10;;
12059;SDS011;6091;51.432;6.880;2023-05-10T06:52:48;2.30;;;2.10;;
12059;SDS011;6091;51.432;6.880;2023-05-10T06:55:18;2.58;;;2.00;;
12059;SDS011;6091;51.432;6.880;2023-05-10T06:57:46;3.13;;;2.20;;
12059;SDS011;6091;51.432;6.880;2023-05-10T07:00:17;2.20;;;2.00;;
12059;SDS011;6091;51.432;6.880;2023-05-10T07:02:46;2.53;;;2.33;;
12059;SDS011;6091;51.432;6.880;2023-05-10T07:05:17;2.80;;;2.30;;
12059;SDS011;6091;51.432;6.880;2023-05-10T07:07:48;3.15;;;2.70;;
12059;SDS011;6091;51.432;6.880;2023-05-10T07:10:16;2.47;;;2.28;;
12059;SDS011;6091;51.432;6.880;2023-05-10T07:12:44;2.70;;;2.50;;
12059;SDS011;6091;51.432;6.880;2023-05-10T07:15:11;3.05;;;2.45;;
12059;SDS011;6091;51.432;6.880;2023-05-10T07:17:41;3.17;;;2.45;;
12059;SDS011;6091;51.432;6.880;2023-05-10T07:20:11;2.67;;;2.28;;
12059;SDS011;6091;51.432;6.880;2023-05-10T07:22:39;2.63;;;2.22;;
12059;SDS011;6091;51.432;6.880;2023-05-10T07:25:07;2.78;;;2.58;;
12059;SDS011;6091;51.432;6.880;2023-05-10T07:27:34;3.20;;;2.90;;
12059;SDS011;6091;51.432;6.880;2023-05-10T07:30:02;3.05;;;2.50;;
12059;SDS011;6091;51.432;6.880;2023-05-10T07:32:29;3.80;;;2.90;;
12059;SDS011;6091;51.432;6.880;2023-05-10T07:34:56;3.15;;;2.63;;
12059;SDS011;6091;51.432;6.880;2023-05-10T07:37:24;5.50;;;2.97;;
12059;SDS011;6091;51.432;6.880;2023-05-10T07:39:51;3.60;;;2.78;;
12059;SDS011;6091;51.432;6.880;2023-05-10T07:42:20;4.28;;;2.83;;
12059;SDS011;6091;51.432;6.880;2023-05-10T07:44:47;4.53;;;2.67;;
12059;SDS011;6091;51.432;6.880;2023-05-10T07:47:14;3.30;;;2.72;;
12059;SDS011;6091;51.432;6.880;2023-05-10T07:49:42;4.57;;;2.72;;
12059;SDS011;6091;51.432;6.880;2023-05-10T07:52:10;3.72;;;3.03;;
12059;SDS011;6091;51.432;6.880;2023-05-10T07:54:37;2.97;;;2.70;;
12059;SDS011;6091;51.432;6.880;2023-05-10T07:57:05;5.45;;;2.95;;
12059;SDS011;6091;51.432;6.880;2023-05-10T07:59:40;3.47;;;3.17;;
12059;SDS011;6091;51.432;6.880;2023-05-10T08:02:16;6.85;;;2.85;;
12059;SDS011;6091;51.432;6.880;2023-05-10T08:04:44;4.28;;;3.00;;
12059;SDS011;6091;51.432;6.880;2023-05-10T08:07:12;4.50;;;3.08;;
12059;SDS011;6091;51.432;6.880;2023-05-10T08:09:42;3.10;;;2.80;;
12059;SDS011;6091;51.432;6.880;2023-05-10T08:12:10;4.13;;;3.30;;
12059;SDS011;6091;51.432;6.880;2023-05-10T08:14:38;4.32;;;3.28;;
12059;SDS011;6091;51.432;6.880;2023-05-10T08:17:05;3.53;;;3.22;;
12059;SDS011;6091;51.432;6.880;2023-05-10T08:19:32;3.13;;;2.83;;
12059;SDS011;6091;51.432;6.880;2023-05-10T08:21:59;4.30;;;3.20;;
12059;SDS011;6091;51.432;6.880;2023-05-10T08:24:26;6.95;;;3.28;;
12059;SDS011;6091;51.432;6.880;2023-05-10T08:26:54;4.38;;;2.95;;
12059;SDS011;6091;51.432;6.880;2023-05-10T08:29:21;3.95;;;2.88;;
12059;SDS011;6091;51.432;6.880;2023-05-10T08:31:48;6.80;;;3.25;;
12059;SDS011;6091;51.432;6.880;2023-05-10T08:34:15;4.10;;;2.60;;
12059;SDS011;6091;51.432;6.880;2023-05-10T08:36:42;5.80;;;3.20;;
12059;SDS011;6091;51.432;6.880;2023-05-10T08:39:09;3.72;;;3.00;;
12059;SDS011;6091;51.432;6.880;2023-05-10T08:41:54;4.18;;;3.50;;
12059;SDS011;6091;51.432;6.880;2023-05-10T08:44:29;3.40;;;2.90;;
12059;SDS011;6091;51.432;6.880;2023-05-10T08:47:04;2.92;;;2.70;;
12059;SDS011;6091;51.432;6.880;2023-05-10T08:49:33;3.70;;;3.08;;
12059;SDS011;6091;51.432;6.880;2023-05-10T08:52:04;8.57;;;3.35;;
12059;SDS011;6091;51.432;6.880;2023-05-10T08:54:34;5.10;;;3.15;;
12059;SDS011;6091;51.432;6.880;2023-05-10T08:57:02;4.53;;;3.33;;
12059;SDS011;6091;51.432;6.880;2023-05-10T08:59:30;3.65;;;3.28;;
12059;SDS011;6091;51.432;6.880;2023-05-10T09:01:58;6.07;;;3.58;;
12059;SDS011;6091;51.432;6.880;2023-05-10T09:04:25;4.13;;;3.22;;
12059;SDS011;6091;51.432;6.880;2023-05-10T09:06:54;5.90;;;3.80;;
12059;SDS011;6091;51.432;6.880;2023-05-10T09:09:21;6.03;;;3.70;;
12059;SDS011;6091;51.432;6.880;2023-05-10T09:11:51;4.55;;;3.40;;
12059;SDS011;6091;51.432;6.880;2023-05-10T09:14:19;6.70;;;3.90;;
12059;SDS011;6091;51.432;6.880;2023-05-10T09:16:46;4.60;;;3.35;;
12059;SDS011;6091;51.432;6.880;2023-05-10T09:19:14;5.07;;;3.25;;
12059;SDS011;6091;51.432;6.880;2023-05-10T09:21:41;4.13;;;3.35;;
12059;SDS011;6091;51.432;6.880;2023-05-10T09:24:13;9.73;;;4.00;;
12059;SDS011;6091;51.432;6.880;2023-05-10T09:26:47;5.15;;;3.17;;
12059;SDS011;6091;51.432;6.880;2023-05-10T09:29:15;13.43;;;4.45;;
12059;SDS011;6091;51.432;6.880;2023-05-10T09:31:47;4.80;;;3.80;;
12059;SDS011;6091;51.432;6.880;2023-05-10T09:34:28;7.80;;;3.75;;
12059;SDS011;6091;51.432;6.880;2023-05-10T09:36:59;4.00;;;3.60;;
12059;SDS011;6091;51.432;6.880;2023-05-10T09:42:18;7.07;;;3.67;;
12059;SDS011;6091;51.432;6.880;2023-05-10T09:44:45;5.13;;;3.65;;
12059;SDS011;6091;51.432;6.880;2023-05-10T09:47:17;7.03;;;3.45;;
12059;SDS011;6091;51.432;6.880;2023-05-10T09:49:52;6.00;;;3.63;;
12059;SDS011;6091;51.432;6.880;2023-05-10T09:52:20;4.05;;;3.58;;
12059;SDS011;6091;51.432;6.880;2023-05-10T09:54:54;7.25;;;3.55;;
12059;SDS011;6091;51.432;6.880;2023-05-10T09:57:22;5.45;;;3.35;;
12059;SDS011;6091;51.432;6.880;2023-05-10T09:59:59;5.28;;;3.53;;
12059;SDS011;6091;51.432;6.880;2023-05-10T10:02:28;4.10;;;3.70;;
12059;SDS011;6091;51.432;6.880;2023-05-10T10:04:55;6.10;;;3.35;;
12059;SDS011;6091;51.432;6.880;2023-05-10T10:07:23;8.38;;;3.47;;
12059;SDS011;6091;51.432;6.880;2023-05-10T10:09:54;7.05;;;3.65;;
12059;SDS011;6091;51.432;6.880;2023-05-10T10:12:22;5.95;;;3.47;;
12059;SDS011;6091;51.432;6.880;2023-05-10T10:14:50;6.30;;;3.53;;
12059;SDS011;6091;51.432;6.880;2023-05-10T10:17:18;4.85;;;3.30;;
12059;SDS011;6091;51.432;6.880;2023-05-10T10:19:47;3.47;;;3.15;;
12059;SDS011;6091;51.432;6.880;2023-05-10T10:22:16;6.32;;;3.30;;
12059;SDS011;6091;51.432;6.880;2023-05-10T10:24:44;4.15;;;3.13;;
12059;SDS011;6091;51.432;6.880;2023-05-10T10:30:27;3.90;;;2.80;;
12059;SDS011;6091;51.432;6.880;2023-05-10T10:33:26;3.88;;;2.85;;
12059;SDS011;6091;51.432;6.880;2023-05-10T10:36:15;4.03;;;3.15;;
12059;SDS011;6091;51.432;6.880;2023-05-10T10:49:50;3.67;;;3.38;;
12059;SDS011;6091;51.432;6.880;2023-05-10T10:52:31;4.97;;;2.90;;
12059;SDS011;6091;51.432;6.880;2023-05-10T10:55:19;8.43;;;3.30;;
12059;SDS011;6091;51.432;6.880;2023-05-10T10:57:52;4.53;;;2.97;;
12059;SDS011;6091;51.432;6.880;2023-05-10T11:00:33;6.25;;;2.60;;
12059;SDS011;6091;51.432;6.880;2023-05-10T11:05:45;4.13;;;2.42;;
12059;SDS011;6091;51.432;6.880;2023-05-10T11:13:34;2.75;;;2.53;;
12059;SDS011;6091;51.432;6.880;2023-05-10T11:16:10;4.85;;;3.03;;
12059;SDS011;6091;51.432;6.880;2023-05-10T11:18:57;5.28;;;2.83;;
12059;SDS011;6091;51.432;6.880;2023-05-10T11:21:32;5.38;;;3.13;;
12059;SDS011;6091;51.432;6.880;2023-05-10T11:24:01;5.47;;;3.20;;
12059;SDS011;6091;51.432;6.880;2023-05-10T11:26:39;3.95;;;2.70;;
12059;SDS011;6091;51.432;6.880;2023-05-10T11:29:06;4.93;;;2.80;;
12059;SDS011;6091;51.432;6.880;2023-05-10T11:31:34;4.45;;;2.83;;
12059;SDS011;6091;51.432;6.880;2023-05-10T11:34:10;4.70;;;2.63;;
12059;SDS011;6091;51.432;6.880;2023-05-10T11:36:38;4.55;;;2.63;;
12059;SDS011;6091;51.432;6.880;2023-05-10T11:39:06;3.17;;;2.80;;
12059;SDS011;6091;51.432;6.880;2023-05-10T11:41:33;5.53;;;2.65;;
12059;SDS011;6091;51.432;6.880;2023-05-10T11:44:01;3.42;;;2.45;;
12059;SDS011;6091;51.432;6.880;2023-05-10T11:46:28;3.28;;;2.08;;
12059;SDS011;6091;51.432;6.880;2023-05-10T11:49:00;3.58;;;2.47;;
12059;SDS011;6091;51.432;6.880;2023-05-10T11:51:32;2.47;;;2.25;;
12059;SDS011;6091;51.432;6.880;2023-05-10T11:54:08;3.75;;;2.60;;
12059;SDS011;6091;51.432;6.880;2023-05-10T11:56:38;4.38;;;2.47;;
12059;SDS011;6091;51.432;6.880;2023-05-10T11:59:07;2.80;;;2.58;;
12059;SDS011;6091;51.432;6.880;2023-05-10T12:01:35;2.38;;;2.00;;
12059;SDS011;6091;51.432;6.880;2023-05-10T12:04:03;2.97;;;2.20;;
12059;SDS011;6091;51.432;6.880;2023-05-10T12:06:31;2.42;;;2.15;;
12059;SDS011;6091;51.432;6.880;2023-05-10T12:09:06;3.03;;;2.38;;
12059;SDS011;6091;51.432;6.880;2023-05-10T12:11:39;3.08;;;2.60;;
12059;SDS011;6091;51.432;6.880;2023-05-10T12:14:09;2.10;;;2.00;;
12059;SDS011;6091;51.432;6.880;2023-05-10T12:16:37;1.92;;;1.70;;
12059;SDS011;6091;51.432;6.880;2023-05-10T12:19:05;2.75;;;1.95;;
12059;SDS011;6091;51.432;6.880;2023-05-10T12:21:32;3.28;;;2.05;;
12059;SDS011;6091;51.432;6.880;2023-05-10T12:24:01;2.40;;;2.00;;
12059;SDS011;6091;51.432;6.880;2023-05-10T12:26:30;2.90;;;2.10;;
12059;SDS011;6091;51.432;6.880;2023-05-10T12:29:17;2.10;;;1.83;;
12059;SDS011;6091;51.432;6.880;2023-05-10T12:34:31;2.92;;;2.20;;
12059;SDS011;6091;51.432;6.880;2023-05-10T12:37:01;2.88;;;1.80;;
12059;SDS011;6091;51.432;6.880;2023-05-10T12:39:42;2.33;;;2.00;;
12059;SDS011;6091;51.432;6.880;2023-05-10T12:42:12;2.05;;;1.50;;
12059;SDS011;6091;51.432;6.880;2023-05-10T12:44:39;1.70;;;1.60;;
12059;SDS011;6091;51.432;6.880;2023-05-10T12:47:06;1.77;;;1.65;;
12059;SDS011;6091;51.432;6.880;2023-05-10T12:49:34;1.83;;;1.70;;
12059;SDS011;6091;51.432;6.880;2023-05-10T12:52:02;1.90;;;1.55;;
12059;SDS011;6091;51.432;6.880;2023-05-10T12:54:29;2.13;;;1.60;;
12059;SDS011;6091;51.432;6.880;2023-05-10T12:56:56;2.13;;;1.90;;
12059;SDS011;6091;51.432;6.880;2023-05-10T12:59:24;3.55;;;1.80;;
12059;SDS011;6091;51.432;6.880;2023-05-10T13:01:51;2.10;;;1.90;;
12059;SDS011;6091;51.432;6.880;2023-05-10T13:04:18;2.53;;;1.67;;
12059;SDS011;6091;51.432;6.880;2023-05-10T13:06:45;1.65;;;1.55;;
12059;SDS011;6091;51.432;6.880;2023-05-10T13:09:13;3.35;;;1.63;;
12059;SDS011;6091;51.432;6.880;2023-05-10T13:11:41;1.35;;;1.23;;
12059;SDS011;6091;51.432;6.880;2023-05-10T13:14:08;1.73;;;1.60;;
12059;SDS011;6091;51.432;6.880;2023-05-10T13:16:36;1.52;;;1.42;;
12059;SDS011;6091;51.432;6.880;2023-05-10T13:19:03;1.50;;;1.40;;
12059;SDS011;6091;51.432;6.880;2023-05-10T13:21:31;1.50;;;1.40;;
12059;SDS011;6091;51.432;6.880;2023-05-10T13:23:58;1.30;;;1.20;;
12059;SDS011;6091;51.432;6.880;2023-05-10T13:26:28;1.25;;;1.15;;
12059;SDS011;6091;51.432;6.880;2023-05-10T13:28:55;1.98;;;1.30;;
12059;SDS011;6091;51.432;6.880;2023-05-10T13:31:22;1.50;;;1.27;;
12059;SDS011;6091;51.432;6.880;2023-05-10T13:33:50;1.38;;;1.27;;
12059;SDS011;6091;51.432;6.880;2023-05-10T13:36:18;1.50;;;1.40;;
12059;SDS011;6091;51.432;6.880;2023-05-10T13:38:45;2.78;;;1.30;;
12059;SDS011;6091;51.432;6.880;2023-05-10T13:41:13;1.30;;;1.20;;
12059;SDS011;6091;51.432;6.880;2023-05-10T13:43:40;1.40;;;1.30;;
12059;SDS011;6091;51.432;6.880;2023-05-10T13:46:10;1.73;;;1.60;;
12059;SDS011;6091;51.432;6.880;2023-05-10T13:48:40;1.30;;;1.05;;
12059;SDS011;6091;51.432;6.880;2023-05-10T13:51:08;1.35;;;1.25;;
12059;SDS011;6091;51.432;6.880;2023-05-10T13:53:35;1.10;;;1.00;;
12059;SDS011;6091;51.432;6.880;2023-05-10T13:56:03;1.10;;;1.00;;
12059;SDS011;6091;51.432;6.880;2023-05-10T13:58:31;2.35;;;1.23;;
12059;SDS011;6091;51.432;6.880;2023-05-10T14:01:01;1.30;;;1.20;;
12059;SDS011;6091;51.432;6.880;2023-05-10T14:03:32;1.17;;;1.08;;
12059;SDS011;6091;51.432;6.880;2023-05-10T14:05:59;1.10;;;1.10;;
12059;SDS011;6091;51.432;6.880;2023-05-10T14:08:27;1.23;;;1.10;;
12059;SDS011;6091;51.432;6.880;2023-05-10T14:11:00;1.40;;;1.20;;
12059;SDS011;6091;51.432;6.880;2023-05-10T14:13:28;1.58;;;1.13;;
12059;SDS011;6091;51.432;6.880;2023-05-10T14:15:58;2.22;;;1.10;;
12059;SDS011;6091;51.432;6.880;2023-05-10T14:18:27;1.27;;;1.20;;
12059;SDS011;6091;51.432;6.880;2023-05-10T14:20:54;1.58;;;1.00;;
12059;SDS011;6091;51.432;6.880;2023-05-10T14:23:22;1.10;;;1.00;;
12059;SDS011;6091;51.432;6.880;2023-05-10T14:25:56;0.90;;;0.90;;
12059;SDS011;6091;51.432;6.880;2023-05-10T14:28:24;1.08;;;1.00;;
12059;SDS011;6091;51.432;6.880;2023-05-10T14:30:53;1.50;;;0.93;;
12059;SDS011;6091;51.432;6.880;2023-05-10T14:33:21;1.00;;;1.00;;
12059;SDS011;6091;51.432;6.880;2023-05-10T14:35:54;0.98;;;0.93;;
12059;SDS011;6091;51.432;6.880;2023-05-10T14:38:23;0.82;;;0.82;;
12059;SDS011;6091;51.432;6.880;2023-05-10T14:40:50;0.82;;;0.82;;
12059;SDS011;6091;51.432;6.880;2023-05-10T14:43:17;1.20;;;1.10;;
12059;SDS011;6091;51.432;6.880;2023-05-10T14:45:45;1.08;;;0.82;;
12059;SDS011;6091;51.432;6.880;2023-05-10T14:48:12;0.90;;;0.90;;
12059;SDS011;6091;51.432;6.880;2023-05-10T14:50:43;1.13;;;1.10;;
12059;SDS011;6091;51.432;6.880;2023-05-10T14:53:12;1.10;;;0.95;;
12059;SDS011;6091;51.432;6.880;2023-05-10T14:55:39;0.90;;;0.90;;
12059;SDS011;6091;51.432;6.880;2023-05-10T14:58:07;0.90;;;0.90;;
12059;SDS011;6091;51.432;6.880;2023-05-10T15:00:34;1.13;;;0.90;;
12059;SDS011;6091;51.432;6.880;2023-05-10T15:03:02;0.90;;;0.90;;
12059;SDS011;6091;51.432;6.880;2023-05-10T15:05:30;0.82;;;0.82;;
12059;SDS011;6091;51.432;6.880;2023-05-10T15:07:58;0.85;;;0.85;;
12059;SDS011;6091;51.432;6.880;2023-05-10T15:10:26;1.13;;;1.00;;
12059;SDS011;6091;51.432;6.880;2023-05-10T15:12:53;0.82;;;0.82;;
12059;SDS011;6091;51.432;6.880;2023-05-10T15:15:21;1.00;;;0.90;;
12059;SDS011;6091;51.432;6.880;2023-05-10T15:17:48;1.00;;;1.00;;
12059;SDS011;6091;51.432;6.880;2023-05-10T15:20:16;0.80;;;0.80;;
12059;SDS011;6091;51.432;6.880;2023-05-10T15:22:46;0.90;;;0.90;;
12059;SDS011;6091;51.432;6.880;2023-05-10T15:25:13;0.80;;;0.80;;
12059;SDS011;6091;51.432;6.880;2023-05-10T15:27:42;0.90;;;0.90;;
12059;SDS011;6091;51.432;6.880;2023-05-10T15:30:12;0.82;;;0.82;;
12059;SDS011;6091;51.432;6.880;2023-05-10T15:32:40;0.95;;;0.88;;
12059;SDS011;6091;51.432;6.880;2023-05-10T15:35:09;0.80;;;0.80;;
12059;SDS011;6091;51.432;6.880;2023-05-10T15:37:37;0.82;;;0.82;;
12059;SDS011;6091;51.432;6.880;2023-05-10T15:40:07;1.05;;;0.95;;
12059;SDS011;6091;51.432;6.880;2023-05-10T15:42:35;0.80;;;0.80;;
12059;SDS011;6091;51.432;6.880;2023-05-10T15:45:04;0.80;;;0.80;;
12059;SDS011;6091;51.432;6.880;2023-05-10T15:47:32;0.82;;;0.82;;
12059;SDS011;6091;51.432;6.880;2023-05-10T15:49:59;0.90;;;0.90;;
12059;SDS011;6091;51.432;6.880;2023-05-10T15:52:27;1.10;;;0.80;;
12059;SDS011;6091;51.432;6.880;2023-05-10T15:54:54;0.70;;;0.65;;
12059;SDS011;6091;51.432;6.880;2023-05-10T15:57:21;1.08;;;1.00;;
12059;SDS011;6091;51.432;6.880;2023-05-10T15:59:49;1.00;;;1.00;;
12059;SDS011;6091;51.432;6.880;2023-05-10T16:02:16;1.13;;;1.02;;
12059;SDS011;6091;51.432;6.880;2023-05-10T16:04:44;1.00;;;0.98;;